Time;durP1;ratioP1;P1;durP2;ratioP2;P2;SDS_P1;SDS_P2;PMS_P1;PMS_P2;Temp;Humidity;BMP_temperature;BMP_pressure;BME280_temperature;BME280_humidity;BME280_pressure;Samples;Min_cycle;Max_cycle;Signal;HPM_P1;HPM_P2
2021/08/01 00:02:01;;;;;;;0.10;0.10;;;;;;;18.71;66.07;100979.56;5023642;28;20034;-90
2021/08/01 00:04:27;;;;;;;0.40;0.40;;;;;;;18.72;65.68;100983.13;5021495;28;20034;-85
2021/08/01 00:06:54;;;;;;;0.10;0.10;;;;;;;18.71;65.93;100978.69;5018111;28;20366;-85
2021/08/01 00:09:23;;;;;;;1.35;0.38;;;;;;;18.70;66.25;100983.19;5021962;28;20041;-88
2021/08/01 00:11:50;;;;;;;0.10;0.10;;;;;;;18.63;65.97;100976.41;5023705;28;20109;-88
2021/08/01 00:14:16;;;;;;;1.00;1.00;;;;;;;18.63;67.41;100984.47;5020508;28;20389;-88
2021/08/01 00:16:43;;;;;;;0.10;0.10;;;;;;;18.69;66.60;100981.47;5023623;28;20116;-88
2021/08/01 00:19:09;;;;;;;1.50;1.48;;;;;;;18.69;66.41;100981.47;5023058;28;20038;-87
2021/08/01 00:21:36;;;;;;;0.10;0.10;;;;;;;18.68;66.94;100978.84;5024152;28;20065;-89
2021/08/01 00:24:02;;;;;;;0.28;0.28;;;;;;;18.63;67.41;100981.78;5019592;28;20127;-87
2021/08/01 00:26:29;;;;;;;0.10;0.10;;;;;;;18.68;66.50;100978.84;5021674;28;20045;-87
2021/08/01 00:28:55;;;;;;;0.20;0.20;;;;;;;18.68;66.59;100973.47;5024219;28;20041;-87
2021/08/01 00:31:22;;;;;;;2.28;1.65;;;;;;;18.71;66.29;100976.88;5021708;28;20099;-85
2021/08/01 00:33:48;;;;;;;0.00;0.00;;;;;;;18.69;66.37;100978.78;5021206;28;20022;-86
2021/08/01 00:36:15;;;;;;;0.52;0.52;;;;;;;18.69;66.46;100978.78;5022286;28;20033;-85
2021/08/01 00:38:41;;;;;;;0.20;0.20;;;;;;;18.64;67.37;100971.91;5021944;28;20481;-86
2021/08/01 00:41:08;;;;;;;0.30;0.30;;;;;;;18.67;66.50;100983.34;5022936;28;20064;-85
2021/08/01 00:43:35;;;;;;;0.10;0.10;;;;;;;18.64;67.24;100975.47;5020454;28;20030;-86
2021/08/01 00:46:01;;;;;;;1.05;0.25;;;;;;;18.63;66.56;100981.78;5023466;28;20117;-85
2021/08/01 00:48:28;;;;;;;0.10;0.10;;;;;;;18.66;66.26;100975.38;5022738;28;20057;-85
2021/08/01 00:50:55;;;;;;;0.10;0.10;;;;;;;18.68;66.84;100985.09;5024193;28;20034;-85
2021/08/01 00:53:21;;;;;;;0.13;0.13;;;;;;;18.65;67.04;100985.22;5022646;28;20036;-85
2021/08/01 00:55:49;;;;;;;0.10;0.10;;;;;;;18.58;67.82;100978.47;5024377;28;20045;-85
2021/08/01 00:58:16;;;;;;;0.10;0.10;;;;;;;18.58;67.54;100973.97;5020032;28;20034;-86
2021/08/01 01:01:19;;;;;;;0.20;0.20;;;;;;;18.57;67.75;100966.84;5019672;28;20088;-85
2021/08/01 01:04:00;;;;;;;0.10;0.10;;;;;;;18.62;67.13;100974.69;5018960;28;20045;-86
2021/08/01 01:06:36;;;;;;;0.10;0.10;;;;;;;18.59;67.19;100969.44;5019701;28;20311;-85
2021/08/01 01:09:15;;;;;;;0.10;0.10;;;;;;;18.58;67.23;100957.88;5019491;28;20409;-86
2021/08/01 01:11:44;;;;;;;0.10;0.10;;;;;;;18.47;67.34;100959.34;5022378;28;20025;-85
2021/08/01 01:14:17;;;;;;;0.10;0.10;;;;;;;18.52;67.27;100957.31;5023138;28;20040;-85
2021/08/01 01:16:55;;;;;;;0.22;0.22;;;;;;;18.54;67.75;100955.41;5021682;28;20029;-86
2021/08/01 01:20:02;;;;;;;0.30;0.30;;;;;;;18.58;67.76;100957.00;5019832;28;20033;-84
2021/08/01 01:22:41;;;;;;;0.10;0.10;;;;;;;18.56;67.52;100951.69;5023444;28;20621;-85
2021/08/01 01:25:25;;;;;;;0.20;0.20;;;;;;;18.59;67.22;100953.34;5023518;28;20030;-85
2021/08/01 01:28:09;;;;;;;0.32;0.32;;;;;;;18.57;68.37;100957.94;5022380;28;20028;-87
2021/08/01 01:30:45;;;;;;;1.10;0.35;;;;;;;18.58;68.02;100962.38;5026440;28;20040;-86
2021/08/01 01:33:16;;;;;;;2.05;0.50;;;;;;;18.56;68.40;100961.56;5024000;28;20411;-86
2021/08/01 01:35:51;;;;;;;0.20;0.20;;;;;;;18.62;67.91;100955.91;5026551;28;20022;-85
2021/08/01 01:38:19;;;;;;;0.20;0.20;;;;;;;18.57;68.39;100949.91;5024906;28;20288;-86
2021/08/01 01:40:53;;;;;;;0.47;0.47;;;;;;;18.62;67.80;100952.31;5024983;28;20040;-87
2021/08/01 01:43:23;;;;;;;0.20;0.20;;;;;;;18.56;68.83;100949.00;5022785;28;20037;-85
2021/08/01 01:45:51;;;;;;;0.25;0.25;;;;;;;18.61;68.44;100948.78;5026382;28;20049;-88
2021/08/01 01:48:18;;;;;;;0.73;0.73;;;;;;;18.66;68.56;100944.03;5025020;28;20037;-85
2021/08/01 01:50:45;;;;;;;0.10;0.10;;;;;;;18.66;68.45;100944.03;5026799;28;20045;-88
2021/08/01 01:53:12;;;;;;;0.10;0.10;;;;;;;18.63;68.74;100944.22;5025913;28;20038;-87
2021/08/01 01:55:40;;;;;;;0.85;0.40;;;;;;;18.63;68.63;100946.91;5027554;28;20237;-86
2021/08/01 01:58:11;;;;;;;0.20;0.20;;;;;;;18.70;68.25;100936.69;5023937;28;20109;-86
2021/08/01 02:00:38;;;;;;;0.10;0.10;;;;;;;18.76;67.83;100939.06;5024414;28;20041;-86
2021/08/01 02:03:05;;;;;;;0.40;0.40;;;;;;;18.72;68.17;100935.66;5024334;28;20025;-85
2021/08/01 02:05:31;;;;;;;0.10;0.10;;;;;;;18.76;67.95;100929.19;5025365;28;20044;-86
2021/08/01 02:07:58;;;;;;;0.10;0.10;;;;;;;18.74;68.06;100932.91;5025963;28;20068;-85
2021/08/01 02:10:34;;;;;;;0.10;0.10;;;;;;;18.86;67.33;100931.38;5024940;28;20034;-85
2021/08/01 02:13:05;;;;;;;0.10;0.10;;;;;;;18.82;67.71;100936.06;5025539;28;20041;-85
2021/08/01 02:15:41;;;;;;;0.30;0.30;;;;;;;18.73;67.52;100934.72;5023738;28;20042;-85
2021/08/01 02:18:11;;;;;;;0.32;0.32;;;;;;;18.84;67.29;100926.09;5024182;28;20420;-85
2021/08/01 02:23:27;;;;;;;0.50;0.50;;;;;;;18.82;67.30;100928.00;5064201;27;20435;-87
2021/08/01 02:25:57;;;;;;;0.10;0.10;;;;;;;18.79;67.37;100930.88;5037930;28;20034;-86
2021/08/01 02:28:27;;;;;;;0.25;0.25;;;;;;;18.82;67.11;100932.50;5042834;28;20029;-87
2021/08/01 02:30:55;;;;;;;1.27;1.17;;;;;;;18.68;67.43;100930.53;5040168;28;20026;-87
2021/08/01 02:33:27;;;;;;;0.90;0.90;;;;;;;18.62;67.69;100934.44;5038706;28;20021;-87
2021/08/01 02:35:59;;;;;;;0.20;0.20;;;;;;;18.75;67.29;100935.53;5037443;28;20036;-88
2021/08/01 02:38:27;;;;;;;0.17;0.17;;;;;;;18.73;67.18;100937.41;5041609;28;20033;-87
2021/08/01 02:40:57;;;;;;;2.25;1.63;;;;;;;18.72;67.16;100927.63;5042348;28;20045;-87
2021/08/01 02:43:28;;;;;;;0.10;0.10;;;;;;;18.68;67.28;100923.38;5038828;28;20037;-86
2021/08/01 02:45:55;;;;;;;0.25;0.25;;;;;;;18.71;67.21;100919.66;5041332;28;20022;-86
2021/08/01 02:48:24;;;;;;;0.47;0.47;;;;;;;18.68;67.42;100919.81;5033764;28;20034;-87
2021/08/01 02:50:59;;;;;;;0.85;0.85;;;;;;;18.80;67.02;100929.03;5039505;28;20032;-86
2021/08/01 02:53:46;;;;;;;0.10;0.10;;;;;;;18.71;67.23;100925.88;5036558;28;20037;-87
2021/08/01 02:56:18;;;;;;;0.10;0.10;;;;;;;18.73;67.11;100936.56;5035949;28;20049;-87
2021/08/01 02:58:47;;;;;;;0.10;0.10;;;;;;;18.65;67.24;100928.88;5034729;28;20063;-87
2021/08/01 03:01:15;;;;;;;0.73;0.73;;;;;;;18.57;67.59;100931.97;5039588;28;20033;-86
2021/08/01 03:03:44;;;;;;;1.27;1.20;;;;;;;18.66;67.33;100936.00;5039810;28;20037;-86
2021/08/01 03:06:13;;;;;;;0.15;0.15;;;;;;;18.62;67.39;100929.06;5038554;28;20092;-86
2021/08/01 03:08:40;;;;;;;0.10;0.10;;;;;;;18.67;67.17;100929.69;5039761;28;20025;-87
2021/08/01 03:11:06;;;;;;;0.25;0.25;;;;;;;18.64;66.99;100927.16;5035786;28;20579;-86
2021/08/01 03:13:33;;;;;;;0.10;0.10;;;;;;;18.68;67.06;100925.16;5039470;28;20432;-86
2021/08/01 03:15:59;;;;;;;0.10;0.10;;;;;;;18.54;67.59;100933.94;5038717;28;20057;-86
2021/08/01 03:18:26;;;;;;;0.10;0.10;;;;;;;18.63;67.31;100921.84;5038017;28;20401;-87
2021/08/01 03:20:52;;;;;;;0.38;0.38;;;;;;;18.66;66.74;100921.72;5041087;28;20033;-87
2021/08/01 03:23:19;;;;;;;0.90;0.90;;;;;;;18.59;67.30;100918.47;5038514;28;20111;-87
2021/08/01 03:25:46;;;;;;;0.20;0.20;;;;;;;18.55;67.31;100925.81;5035737;28;20025;-86
2021/08/01 03:28:22;;;;;;;0.22;0.22;;;;;;;18.54;67.34;100923.22;5041143;28;20096;-87
2021/08/01 03:30:56;;;;;;;0.20;0.20;;;;;;;18.48;67.57;100923.53;5037180;28;20091;-87
2021/08/01 03:33:25;;;;;;;0.10;0.10;;;;;;;18.43;67.45;100927.31;5034369;28;20029;-87
2021/08/01 03:36:00;;;;;;;0.22;0.22;;;;;;;18.48;67.54;100923.53;5031130;28;20091;-88
2021/08/01 03:38:27;;;;;;;0.30;0.30;;;;;;;18.46;67.29;100922.75;5033122;28;20033;-87
2021/08/01 03:40:54;;;;;;;1.55;0.63;;;;;;;18.49;67.16;100925.28;5024220;28;20033;-87
2021/08/01 03:43:21;;;;;;;0.35;0.35;;;;;;;18.39;67.61;100919.50;5027366;28;20026;-87
2021/08/01 03:45:51;;;;;;;1.27;1.17;;;;;;;18.37;67.20;100922.28;5024416;28;20029;-87
2021/08/01 03:48:17;;;;;;;0.10;0.10;;;;;;;18.39;67.37;100931.13;5024715;28;20042;-87
2021/08/01 03:50:43;;;;;;;0.10;0.10;;;;;;;18.29;68.06;100934.34;5026442;28;20485;-86
2021/08/01 03:53:10;;;;;;;0.38;0.38;;;;;;;18.30;67.88;100931.59;5024493;28;20558;-86
2021/08/01 03:55:36;;;;;;;0.10;0.10;;;;;;;18.28;67.96;100930.81;5026096;28;20521;-86
2021/08/01 03:58:03;;;;;;;0.20;0.20;;;;;;;18.37;67.52;100934.84;5024741;28;20088;-87
2021/08/01 04:00:45;;;;;;;0.40;0.40;;;;;;;18.37;67.90;100924.97;5023459;28;20108;-86
2021/08/01 04:03:11;;;;;;;0.75;0.75;;;;;;;18.31;67.83;100927.97;5023371;28;20030;-86
2021/08/01 04:05:39;;;;;;;0.63;0.63;;;;;;;18.36;67.88;100931.28;5023393;28;20025;-87
2021/08/01 04:08:05;;;;;;;0.10;0.10;;;;;;;18.29;68.03;100927.16;5025521;28;20041;-87
2021/08/01 04:10:32;;;;;;;0.17;0.17;;;;;;;18.29;67.99;100926.31;5023493;28;20037;-86
2021/08/01 04:12:58;;;;;;;0.30;0.30;;;;;;;18.24;67.89;100926.53;5024754;28;20032;-87
2021/08/01 04:15:24;;;;;;;0.10;0.10;;;;;;;18.30;67.91;100926.22;5025661;28;20119;-86
2021/08/01 04:17:50;;;;;;;0.25;0.25;;;;;;;18.21;68.45;100927.56;5024443;28;20025;-87
2021/08/01 04:20:17;;;;;;;0.10;0.10;;;;;;;18.26;68.32;100924.66;5023852;28;20080;-86
2021/08/01 04:22:43;;;;;;;1.17;1.15;;;;;;;18.28;68.01;100933.50;5023384;28;20124;-87
2021/08/01 04:25:10;;;;;;;0.30;0.30;;;;;;;18.23;68.48;100936.41;5025378;28;20129;-87
2021/08/01 04:27:37;;;;;;;0.52;0.52;;;;;;;18.30;68.02;100931.59;5025092;28;20025;-86
2021/08/01 04:30:04;;;;;;;0.30;0.30;;;;;;;18.22;68.69;100933.81;5021899;28;20120;-87
2021/08/01 04:32:31;;;;;;;1.30;1.27;;;;;;;18.34;68.29;100937.66;5025991;28;20082;-87
2021/08/01 04:34:57;;;;;;;0.47;0.47;;;;;;;18.28;68.33;100944.22;5024621;28;20033;-87
2021/08/01 04:37:23;;;;;;;0.30;0.30;;;;;;;18.42;68.26;100938.16;5023764;28;20068;-87
2021/08/01 04:39:50;;;;;;;0.38;0.38;;;;;;;18.30;68.67;100945.00;5024888;28;20034;-86
2021/08/01 04:42:16;;;;;;;2.03;1.27;;;;;;;18.41;68.65;100939.94;5024541;28;20041;-86
2021/08/01 04:44:42;;;;;;;0.60;0.47;;;;;;;18.37;69.16;100943.75;5021154;28;20031;-87
2021/08/01 04:47:12;;;;;;;0.10;0.10;;;;;;;18.57;68.30;100934.66;5020500;28;20038;-86
2021/08/01 04:49:39;;;;;;;0.35;0.35;;;;;;;18.65;68.09;100931.56;5023482;28;20529;-85
2021/08/01 04:52:06;;;;;;;0.50;0.50;;;;;;;18.55;68.59;100938.38;5023059;28;20018;-85
2021/08/01 04:54:34;;;;;;;0.28;0.28;;;;;;;18.63;68.38;100933.47;5021671;28;20080;-87
2021/08/01 04:57:01;;;;;;;0.10;0.10;;;;;;;18.72;67.99;100937.50;5024789;28;20496;-87
2021/08/01 04:59:27;;;;;;;0.60;0.60;;;;;;;18.65;68.56;100930.72;5021930;28;20489;-86
2021/08/01 05:01:53;;;;;;;1.42;1.35;;;;;;;18.73;68.20;100940.09;5024117;28;20037;-87
2021/08/01 05:04:20;;;;;;;0.50;0.50;;;;;;;18.65;68.42;100950.34;5025209;28;20040;-86
2021/08/01 05:06:46;;;;;;;0.98;0.35;;;;;;;18.73;68.32;100939.25;5022351;28;20033;-85
2021/08/01 05:09:13;;;;;;;0.50;0.50;;;;;;;18.75;68.30;100942.69;5022961;28;20112;-87
2021/08/01 05:11:39;;;;;;;0.10;0.10;;;;;;;18.75;68.30;100940.00;5023730;28;20057;-86
2021/08/01 05:14:05;;;;;;;0.10;0.10;;;;;;;18.71;68.57;100941.97;5025257;28;20029;-86
2021/08/01 05:16:32;;;;;;;0.17;0.17;;;;;;;18.75;68.40;100943.56;5023946;28;20481;-88
2021/08/01 05:18:59;;;;;;;2.90;1.85;;;;;;;18.85;67.81;100938.56;5022092;28;20025;-86
2021/08/01 05:21:25;;;;;;;1.08;1.08;;;;;;;18.86;67.94;100939.44;5019963;28;20116;-86
2021/08/01 05:23:52;;;;;;;0.63;0.63;;;;;;;18.89;68.05;100939.25;5021963;28;20030;-86
2021/08/01 05:26:19;;;;;;;0.57;0.57;;;;;;;18.90;68.00;100941.00;5022869;28;20342;-85
2021/08/01 05:28:45;;;;;;;0.47;0.47;;;;;;;18.90;68.03;100930.25;5024401;28;20030;-85
2021/08/01 05:31:11;;;;;;;0.52;0.52;;;;;;;18.97;67.83;100920.97;5022821;28;20385;-85
2021/08/01 05:33:42;;;;;;;0.60;0.60;;;;;;;18.97;67.85;100925.47;5022793;28;20040;-85
2021/08/01 05:36:10;;;;;;;1.25;1.20;;;;;;;18.88;68.26;100932.19;5019617;28;20108;-86
2021/08/01 05:38:38;;;;;;;3.80;1.80;;;;;;;19.01;68.11;100927.03;5022596;28;20061;-87
2021/08/01 05:41:05;;;;;;;0.68;0.68;;;;;;;18.89;68.23;100917.78;5022071;28;20040;-87
2021/08/01 05:43:32;;;;;;;0.35;0.35;;;;;;;18.81;68.59;100930.78;5021336;28;20108;-86
2021/08/01 05:45:58;;;;;;;1.55;1.45;;;;;;;18.90;68.35;100935.63;5014448;28;20029;-86
2021/08/01 05:48:24;;;;;;;1.67;1.55;;;;;;;19.07;67.92;100930.25;5013534;28;20061;-85
2021/08/01 05:50:51;;;;;;;0.77;0.65;;;;;;;19.16;67.61;100934.25;5013554;28;20093;-86
2021/08/01 05:53:21;;;;;;;0.68;0.68;;;;;;;19.17;67.74;100935.13;5013357;28;20568;-86
2021/08/01 05:55:48;;;;;;;2.67;2.47;;;;;;;19.22;67.54;100941.13;5011728;28;20041;-86
2021/08/01 05:58:14;;;;;;;0.40;0.40;;;;;;;19.29;67.57;100945.22;5013523;28;20060;-87
2021/08/01 06:00:41;;;;;;;0.10;0.10;;;;;;;19.34;67.42;100945.81;5019019;28;20030;-86
2021/08/01 06:03:07;;;;;;;25.63;2.00;;;;;;;19.28;67.81;100943.47;5018790;28;20092;-86
2021/08/01 06:05:33;;;;;;;0.30;0.30;;;;;;;19.56;67.21;100941.94;5015937;28;20152;-87
2021/08/01 06:08:00;;;;;;;1.85;0.77;;;;;;;19.71;67.17;100948.25;5020074;28;20029;-87
2021/08/01 06:10:26;;;;;;;2.60;1.75;;;;;;;19.84;66.84;100945.78;5013447;28;20040;-87
2021/08/01 06:12:52;;;;;;;1.10;1.08;;;;;;;19.94;66.73;100943.41;5013374;28;20370;-86
2021/08/01 06:15:19;;;;;;;1.15;1.15;;;;;;;20.01;66.49;100950.16;5013233;28;20033;-87
2021/08/01 06:17:45;;;;;;;1.38;0.82;;;;;;;19.90;66.26;100937.38;5013455;28;20026;-86
2021/08/01 06:20:12;;;;;;;6.80;6.13;;;;;;;20.08;66.10;100956.06;5012858;28;20034;-86
2021/08/01 06:22:39;;;;;;;0.65;0.52;;;;;;;19.76;66.34;100945.31;5013179;28;20515;-86
2021/08/01 06:25:06;;;;;;;2.97;1.33;;;;;;;19.93;66.07;100947.94;5013197;28;20030;-85
2021/08/01 06:27:32;;;;;;;2.05;1.38;;;;;;;19.77;66.39;100947.03;5013195;28;20053;-85
2021/08/01 06:29:58;;;;;;;1.20;1.10;;;;;;;19.92;66.09;100950.72;5013030;28;20057;-86
2021/08/01 06:32:24;;;;;;;0.30;0.30;;;;;;;19.90;66.25;100948.13;5013648;28;20037;-86
2021/08/01 06:34:51;;;;;;;1.95;1.80;;;;;;;19.87;66.54;100948.28;5012640;28;20034;-86
2021/08/01 06:37:17;;;;;;;0.55;0.55;;;;;;;19.97;66.14;100954.84;5017100;28;20136;-87
2021/08/01 06:39:44;;;;;;;2.85;2.65;;;;;;;19.96;66.63;100947.75;5021585;28;20700;-85
2021/08/01 06:42:10;;;;;;;0.45;0.45;;;;;;;20.06;66.77;100936.47;5011610;28;20037;-85
2021/08/01 06:44:36;;;;;;;0.43;0.43;;;;;;;20.08;66.68;100945.31;5012262;28;20030;-86
2021/08/01 06:47:03;;;;;;;0.52;0.52;;;;;;;20.22;66.41;100948.03;5028705;28;20485;-85
2021/08/01 06:49:29;;;;;;;1.73;1.63;;;;;;;20.26;65.97;100949.63;5023055;28;20504;-86
2021/08/01 06:51:55;;;;;;;3.63;1.60;;;;;;;20.16;66.07;100951.97;5013723;28;20430;-84
2021/08/01 06:54:21;;;;;;;3.97;2.38;;;;;;;20.27;65.62;100955.84;5012806;28;20030;-85
2021/08/01 06:56:59;;;;;;;1.13;1.10;;;;;;;20.30;65.56;100955.66;5024706;28;20025;-85
2021/08/01 06:59:25;;;;;;;2.22;2.08;;;;;;;20.43;65.61;100950.44;5023235;28;20041;-86
2021/08/01 07:01:51;;;;;;;0.20;0.20;;;;;;;20.48;65.82;100948.31;5015308;28;20037;-86
2021/08/01 07:04:17;;;;;;;0.57;0.57;;;;;;;20.65;65.38;100950.84;5033061;28;20037;-86
2021/08/01 07:06:45;;;;;;;0.65;0.65;;;;;;;20.80;65.02;100953.63;5016315;28;20088;-86
2021/08/01 07:09:11;;;;;;;1.05;1.05;;;;;;;20.84;64.97;100953.31;5015110;28;20053;-85
2021/08/01 07:11:38;;;;;;;0.52;0.52;;;;;;;20.96;64.86;100951.69;5017660;28;20084;-86
2021/08/01 07:14:04;;;;;;;1.08;1.00;;;;;;;21.18;64.13;100953.03;5016726;28;20037;-86
2021/08/01 07:16:30;;;;;;;1.60;1.55;;;;;;;21.13;63.58;100950.66;5016701;28;20389;-85
2021/08/01 07:18:56;;;;;;;0.30;0.30;;;;;;;21.34;63.60;100948.41;5016147;28;20045;-85
2021/08/01 07:21:22;;;;;;;0.38;0.38;;;;;;;21.38;63.61;100942.84;5015877;28;20390;-85
2021/08/01 07:23:49;;;;;;;1.30;0.50;;;;;;;21.56;62.88;100941.69;5016135;28;20041;-86
2021/08/01 07:26:15;;;;;;;0.77;0.77;;;;;;;21.75;62.69;100951.28;5017746;28;20065;-87
2021/08/01 07:28:41;;;;;;;5.35;0.90;;;;;;;21.89;61.86;100945.81;5031443;28;20058;-87
2021/08/01 07:31:07;;;;;;;0.98;0.95;;;;;;;21.93;61.17;100949.19;5015847;28;20109;-86
2021/08/01 07:33:33;;;;;;;0.75;0.75;;;;;;;21.80;61.90;100952.69;5016261;28;20034;-86
2021/08/01 07:36:00;;;;;;;0.35;0.32;;;;;;;21.88;61.81;100957.59;5017338;28;20034;-86
2021/08/01 07:38:26;;;;;;;30.65;1.05;;;;;;;21.50;61.71;100955.53;5019691;28;20037;-86
2021/08/01 07:40:52;;;;;;;1.98;0.88;;;;;;;21.43;63.02;100957.75;5016490;28;20038;-86
2021/08/01 07:43:18;;;;;;;0.28;0.28;;;;;;;21.47;63.13;100953.00;5015592;28;20117;-86
2021/08/01 07:45:45;;;;;;;0.10;0.10;;;;;;;21.26;63.69;100956.13;5015568;28;20033;-86
2021/08/01 07:48:11;;;;;;;0.25;0.25;;;;;;;21.13;63.74;100950.66;5016155;28;20033;-86
2021/08/01 07:50:37;;;;;;;0.10;0.10;;;;;;;21.01;63.70;100951.44;5016230;28;20362;-86
2021/08/01 07:53:03;;;;;;;0.57;0.57;;;;;;;20.93;64.06;100938.41;5015722;28;20045;-85
2021/08/01 07:55:29;;;;;;;0.25;0.25;;;;;;;20.85;64.42;100946.13;5015632;28;20064;-85
2021/08/01 07:57:56;;;;;;;0.22;0.22;;;;;;;20.84;64.72;100956.00;5014702;28;20038;-85
2021/08/01 08:00:22;;;;;;;0.10;0.10;;;;;;;20.81;65.40;100958.91;5015461;28;20026;-86
2021/08/01 08:02:49;;;;;;;0.20;0.20;;;;;;;20.73;65.43;100963.03;5015699;28;20076;-87
2021/08/01 08:05:15;;;;;;;0.80;0.80;;;;;;;20.49;66.03;100972.44;5015673;28;20022;-86
2021/08/01 08:07:42;;;;;;;0.10;0.10;;;;;;;20.29;66.88;100975.47;5015131;28;20054;-86
2021/08/01 08:10:09;;;;;;;9.50;1.08;;;;;;;20.49;66.00;100982.34;5015106;28;20026;-86
2021/08/01 08:12:36;;;;;;;0.43;0.43;;;;;;;20.41;66.80;100985.50;5014903;28;20045;-86
2021/08/01 08:15:03;;;;;;;0.20;0.20;;;;;;;20.39;67.07;100986.53;5015176;28;20065;-85
2021/08/01 08:17:33;;;;;;;0.30;0.30;;;;;;;20.45;66.53;100983.47;5010518;28;20056;-86
2021/08/01 08:20:00;;;;;;;4.47;0.43;;;;;;;20.16;67.29;100986.06;5015810;28;20466;-86
2021/08/01 08:22:26;;;;;;;0.57;0.57;;;;;;;20.24;66.67;100983.81;5016233;28;20034;-86
2021/08/01 08:24:53;;;;;;;0.15;0.15;;;;;;;20.26;67.04;100976.53;5015010;28;20057;-86
2021/08/01 08:27:19;;;;;;;0.20;0.20;;;;;;;20.08;67.38;100972.22;5014202;28;20030;-86
2021/08/01 08:29:45;;;;;;;0.10;0.10;;;;;;;20.18;66.85;100968.88;5014917;28;20125;-86
2021/08/01 08:32:11;;;;;;;0.10;0.10;;;;;;;20.17;67.07;100977.03;5032748;28;20036;-86
2021/08/01 08:34:38;;;;;;;0.10;0.10;;;;;;;20.03;67.30;100969.78;5035049;28;20061;-87
2021/08/01 08:37:04;;;;;;;0.93;0.60;;;;;;;19.97;67.11;100976.38;5017716;28;20038;-86
2021/08/01 08:39:30;;;;;;;0.20;0.20;;;;;;;19.98;67.51;100970.03;5028031;28;20424;-86
2021/08/01 08:41:59;;;;;;;0.20;0.20;;;;;;;19.91;67.61;100976.72;5022958;28;20038;-86
2021/08/01 08:44:26;;;;;;;0.10;0.10;;;;;;;19.87;67.54;100975.16;5014920;28;20030;-86
2021/08/01 08:46:55;;;;;;;0.20;0.20;;;;;;;20.04;67.25;100977.75;5015146;28;20021;-86
2021/08/01 08:49:22;;;;;;;0.20;0.20;;;;;;;19.85;67.31;100977.06;5010921;28;20033;-85
2021/08/01 08:51:51;;;;;;;0.10;0.10;;;;;;;19.87;67.26;100980.53;5014668;28;20054;-85
2021/08/01 08:54:26;;;;;;;0.10;0.10;;;;;;;19.90;67.33;100984.88;5013478;28;20037;-87
2021/08/01 08:56:55;;;;;;;0.20;0.20;;;;;;;20.02;67.61;100993.09;5014261;28;20034;-86
2021/08/01 08:59:22;;;;;;;0.10;0.10;;;;;;;20.04;67.29;100990.34;5014526;28;20061;-87
2021/08/01 09:01:49;;;;;;;0.50;0.50;;;;;;;19.97;67.65;100992.50;5014748;28;20026;-86
2021/08/01 09:04:16;;;;;;;0.10;0.10;;;;;;;20.03;67.26;100997.53;5014986;28;20156;-84
2021/08/01 09:06:42;;;;;;;0.10;0.10;;;;;;;20.18;67.33;101005.69;5014654;28;20049;-88
2021/08/01 09:09:10;;;;;;;0.10;0.10;;;;;;;20.22;66.91;100999.16;5013750;28;20029;-88
2021/08/01 09:11:37;;;;;;;0.10;0.10;;;;;;;20.36;65.17;101010.00;5014623;28;20485;-86
2021/08/01 09:14:04;;;;;;;0.30;0.30;;;;;;;20.57;66.00;101003.44;5014144;28;20037;-88
2021/08/01 09:16:49;;;;;;;0.10;0.10;;;;;;;20.79;64.94;101005.72;5013629;28;20391;-87
2021/08/01 09:19:25;;;;;;;0.10;0.10;;;;;;;21.04;64.95;101005.09;5011810;28;20034;-88
2021/08/01 09:21:52;;;;;;;0.10;0.10;;;;;;;20.88;64.11;101005.16;5018134;28;20032;-87
2021/08/01 09:24:18;;;;;;;0.30;0.30;;;;;;;20.99;63.31;101001.81;5014151;28;20030;-87
2021/08/01 09:26:50;;;;;;;0.17;0.17;;;;;;;21.25;63.59;100991.25;5014156;28;20026;-87
2021/08/01 09:29:17;;;;;;;0.10;0.10;;;;;;;21.33;62.16;100992.50;5014498;28;20060;-86
2021/08/01 09:31:45;;;;;;;0.30;0.30;;;;;;;21.36;62.85;100993.25;5012881;28;20029;-87
2021/08/01 09:34:28;;;;;;;0.30;0.30;;;;;;;21.75;62.69;100989.03;5012161;28;20022;-88
2021/08/01 09:37:00;;;;;;;0.10;0.10;;;;;;;21.75;62.35;100994.41;5021594;28;20122;-88
2021/08/01 09:39:27;;;;;;;0.10;0.10;;;;;;;21.90;60.90;100977.22;5015875;28;20081;-87
2021/08/01 09:42:00;;;;;;;0.20;0.20;;;;;;;22.11;60.78;100990.28;5015963;28;20385;-88
2021/08/01 09:44:27;;;;;;;0.10;0.10;;;;;;;22.04;61.11;100997.03;5018156;28;20022;-88
2021/08/01 09:46:55;;;;;;;0.13;0.13;;;;;;;22.42;60.63;100991.81;5024563;28;20045;-89
2021/08/01 09:49:24;;;;;;;0.10;0.10;;;;;;;22.65;61.19;100989.34;5023653;28;20022;-89
2021/08/01 09:54:48;;;;;;;0.10;0.10;;;;;;;23.20;59.68;100987.38;5070443;27;20422;-88
2021/08/01 09:57:18;;;;;;;0.57;0.57;;;;;;;23.23;56.73;100995.25;5039626;28;20033;-87
2021/08/01 09:59:48;;;;;;;0.17;0.17;;;;;;;23.35;57.09;100998.06;5034281;28;20026;-86
2021/08/01 10:02:15;;;;;;;0.22;0.22;;;;;;;23.37;57.73;100998.81;5040077;28;20049;-84
2021/08/01 10:04:41;;;;;;;1.27;1.20;;;;;;;22.68;59.41;100999.09;5037347;28;20048;-86
2021/08/01 10:07:13;;;;;;;1.20;0.63;;;;;;;22.70;59.40;101002.56;5033953;28;20033;-86
2021/08/01 10:12:24;;;;;;;0.10;0.10;;;;;;;21.87;60.62;101003.53;5081328;27;20442;-87
2021/08/01 10:14:50;;;;;;;0.10;0.10;;;;;;;21.68;62.08;100998.47;5063245;28;20029;-85
2021/08/01 10:17:16;;;;;;;0.10;0.10;;;;;;;21.57;62.38;101002.72;5059994;28;20029;-86
2021/08/01 10:19:42;;;;;;;0.10;0.10;;;;;;;21.48;62.84;101003.28;5061717;28;20111;-86
2021/08/01 10:22:10;;;;;;;0.40;0.40;;;;;;;21.41;62.70;101002.81;5059202;28;20032;-86
2021/08/01 10:24:43;;;;;;;0.10;0.10;;;;;;;21.41;63.46;100997.41;5063262;28;20028;-85
2021/08/01 10:27:11;;;;;;;0.10;0.10;;;;;;;21.46;63.66;101002.53;5061264;28;20041;-86
2021/08/01 10:29:48;;;;;;;0.32;0.32;;;;;;;21.53;63.31;101005.69;5063286;28;20021;-87
2021/08/01 10:32:19;;;;;;;0.10;0.10;;;;;;;21.49;64.29;101005.00;5058903;28;20400;-86
2021/08/01 10:40:41;;;;;;;3.03;0.47;;;;;;;21.65;63.74;101008.47;5142072;27;20396;-86
2021/08/01 10:43:11;;;;;;;3.92;0.75;;;;;;;21.63;63.42;100999.66;5128185;28;20051;-86
2021/08/01 10:45:42;;;;;;;0.28;0.28;;;;;;;21.63;62.64;101001.44;5124381;28;20044;-86
2021/08/01 10:48:08;;;;;;;0.13;0.13;;;;;;;21.86;63.40;100999.09;5104846;28;20143;-87
2021/08/01 10:50:35;;;;;;;1.05;1.05;;;;;;;22.10;62.80;101010.13;5106176;28;20030;-87
2021/08/01 10:53:22;;;;;;;0.10;0.10;;;;;;;22.48;62.13;101006.72;5107139;28;20110;-88
2021/08/01 10:55:54;;;;;;;0.20;0.20;;;;;;;22.61;61.14;101002.19;5105269;28;20118;-88
2021/08/01 10:58:21;;;;;;;;;;;;;;;22.41;56.72;101013.50;5103281;28;20427;-87
2021/08/01 11:01:07;;;;;;;2.35;1.48;;;;;;;22.50;57.59;101012.88;5102431;28;19973;-87
2021/08/01 11:03:36;;;;;;;0.30;0.30;;;;;;;22.45;58.53;101015.03;5106220;28;20024;-83
2021/08/01 11:06:26;;;;;;;0.10;0.10;;;;;;;22.59;58.74;101004.16;5106557;28;20024;-86
2021/08/01 11:09:08;;;;;;;0.10;0.10;;;;;;;22.70;58.40;101018.75;5102226;28;20099;-86
2021/08/01 11:11:35;;;;;;;0.22;0.22;;;;;;;22.47;56.81;101018.50;5099452;28;20426;-85
2021/08/01 11:14:01;;;;;;;0.10;0.10;;;;;;;22.49;57.70;101016.53;5098854;28;20050;-86
2021/08/01 11:16:48;;;;;;;0.10;0.10;;;;;;;22.49;57.04;101021.94;5105717;28;20510;-86
2021/08/01 11:19:33;;;;;;;0.10;0.10;;;;;;;22.19;56.57;101017.59;5092442;28;20027;-86
2021/08/01 11:22:01;;;;;;;0.10;0.10;;;;;;;22.27;57.62;101017.97;5107831;28;20108;-86
2021/08/01 11:24:27;;;;;;;0.13;0.13;;;;;;;22.26;57.30;101018.91;5108886;28;20065;-87
2021/08/01 11:27:12;;;;;;;0.10;0.10;;;;;;;22.56;57.50;101011.59;5109016;28;20031;-86
2021/08/01 11:30:01;;;;;;;0.10;0.10;;;;;;;22.85;57.12;101009.59;5105151;28;20054;-86
2021/08/01 11:32:29;;;;;;;0.20;0.20;;;;;;;22.82;55.00;101027.84;5108425;28;20036;-83
2021/08/01 11:35:16;;;;;;;0.15;0.15;;;;;;;23.03;53.58;101025.47;5107840;28;20386;-85
2021/08/01 11:37:43;;;;;;;0.10;0.10;;;;;;;22.98;52.72;101022.25;5089673;28;20383;-86
2021/08/01 11:40:12;;;;;;;0.40;0.40;;;;;;;23.04;54.22;101021.81;5105986;28;20031;-83
2021/08/01 11:42:39;;;;;;;0.52;0.52;;;;;;;22.96;52.83;101021.50;5107053;28;20379;-84
2021/08/01 11:45:13;;;;;;;0.10;0.10;;;;;;;23.24;54.30;101023.16;5110288;28;20020;-84
2021/08/01 11:47:44;;;;;;;0.10;0.10;;;;;;;23.35;54.07;101015.16;5098532;28;20035;-84